AirNav   TITAN Aviation Fuels
 
 1660 users online  

WN20 Van de Plasch Airport
Monroe, Washington, USA

GOING TO MONROE?


FAA INFORMATION EFFECTIVE 04 NOVEMBER 2021

Location

FAA Identifier: WN20
Lat/Long: 47-52-20.3590N 121-55-22.4460W
47-52.339317N 121-55.374100W
47.8723219,-121.9229017
(estimated)
Elevation: 60 ft. / 18 m (estimated)
Variation: 20E (1985)
From city: 3 miles SW of MONROE, WA
Time zone: UTC -7 (UTC -8 during Standard Time)
Zip code: 98272

Airport Operations

Airport use: Private use. Permission required prior to landing
Activation date: 07/1982
Control tower: no
ARTCC: SEATTLE CENTER
FSS: SEATTLE FLIGHT SERVICE STATION
Attendance: CONTINUOUS
Wind indicator: yes
Segmented circle: no

Airport Communications

WX ASOS at PAE (15 nm W): PHONE 425-355-6192
WX AWOS-3PT at AWO (20 nm NW): 135.625 (360-435-8045)

Nearby radio navigation aids

VOR radial/distance  VOR name  Freq  Var
PAEr081/14.6PAINE VOR/DME110.6020E
SEAr012/30.5SEATTLE VORTAC116.8019E
CVVr106/39.1PENN COVE VOR/DME117.2019E

Airport Services

Runway Information

Runway 4/22

Dimensions: 1350 x 20 ft. / 411 x 6 m
Surface: turf
RUNWAY 4  RUNWAY 22
Traffic pattern: leftleft
Obstructions: 4 ft. fence4 ft. fence

Airport Ownership and Management from official FAA records

Ownership: Privately-owned
Owner: RICHARD L. VAN DEPLASCH
22710 WOODS CREEK RD.
MONROE, WA 98272
Phone 206-794-5354
Manager: RICHARD L. VAN DEPLASCH
22710 WOODS CREEK RD.
MONROE, WA 98272
Phone 206-794-5354

Airport Operational Statistics

Aircraft based on the field: 1
Single engine airplanes: 1
    

Additional Remarks

FOR CD CTC SEATTLE APCH AT 206-214-4794.

Instrument Procedures

There are no published instrument procedures at WN20.

Some nearby airports with instrument procedures:

S43 - Harvey Field Airport (7 nm W)
KPAE - Snohomish County Airport (Paine Field) (15 nm W)
KAWO - Arlington Municipal Airport (20 nm NW)
KBFI - Boeing Field/King County International Airport (26 nm SW)
KRNT - Renton Municipal Airport (26 nm SW)
 
Loc | Ops | Rwys | IFR | FBO | Links
Com | Nav | Svcs | Stats | Notes
Area around WN20 (Van de Plasch Airport)
 
Road maps at: MapQuest Bing Google
 
Aerial photo
No photo
 
Sectional chart

 
Airport distance calculator
Flying to Van de Plasch Airport? Find the distance to fly.

From to WN20

Sunrise and sunset
Times for 30-Nov-2021
 Local
(UTC-8)
 Zulu
(UTC)
Morning civil twilight07:0115:01
Sunrise07:3615:36
Sunset16:1700:17
Evening civil twilight16:5200:52

Current date and time
Zulu (UTC)  30-Nov-2021 18:01:50
Local (UTC-8)  30-Nov-2021 10:01:50
 
METAR
KPAE 
15nm W 
301753Z 18018G27KT 7SM -RA FEW024 BKN060 OVC070 11/07 A3019 RMK AO2 PK WND 21032/1733 RAB06 SLP223 P0000 60001 T01060072 10117 20100 53024
KAWO 
20nm NW 
301756Z AUTO 15014G21KT 10SM -RA BKN021 OVC028 11/09 A3020 RMK AO2 RAE1658B24 SLP230 P0000 60000 T01110094 10128 20111 53027
KBFI 
25nm SW 
301753Z 20012G19KT 10SM SCT014 BKN023 OVC060 12/10 A3022 RMK AO2 SLP232 60000 T01220100 10122 20117 53018
KRNT 
25nm SW 
301753Z 18005KT 10SM OVC014 12/10 A3022 RMK AO2 SLP237 6//// T01220100 10128 20111 53015
TAF
KPAE 
15nm W 
301120Z 3012/0112 16014G24KT P6SM VCSH SCT008 OVC025 TEMPO 3012/3015 6SM -RA BR BKN007 OVC022 FM301500 17013G22KT 6SM -RA BR OVC009 FM302200 17012G22KT 4SM -RA BR OVC010 FM010900 18014G22KT P6SM VCSH BKN014
NOTAMs
Click for the latest NOTAMs
NOTAMs are issued by the DoD/FAA and will open in a separate window not controlled by AirNav.

 

 
 

Would you like to see your business listed on this page?

 If your business provides an interesting product or service to pilots, flight crews, aircraft, or users of the Van de Plasch Airport, you should consider listing it here.  To start the listing process, click on the button below
 
Add a business
 

Other Pages about Van de Plasch Airport

Update a link
 
Copyright © AirNav, LLC. All rights reserved. Privacy Policy  Contact